sensor_id;sensor_type;location;lat;lon;timestamp;P1;durP1;ratioP1;P2;durP2;ratioP2
47431;SDS011;33183;52.290;6.144;2023-03-08T00:00:59;2.85;;;2.20;;
47431;SDS011;33183;52.290;6.144;2023-03-08T00:03:25;2.10;;;1.90;;
47431;SDS011;33183;52.290;6.144;2023-03-08T00:05:50;2.30;;;2.10;;
47431;SDS011;33183;52.290;6.144;2023-03-08T00:08:16;2.13;;;1.92;;
47431;SDS011;33183;52.290;6.144;2023-03-08T00:10:41;2.50;;;1.98;;
47431;SDS011;33183;52.290;6.144;2023-03-08T00:13:07;2.13;;;1.80;;
47431;SDS011;33183;52.290;6.144;2023-03-08T00:15:32;2.17;;;1.90;;
47431;SDS011;33183;52.290;6.144;2023-03-08T00:17:57;2.85;;;1.70;;
47431;SDS011;33183;52.290;6.144;2023-03-08T00:20:23;2.20;;;1.70;;
47431;SDS011;33183;52.290;6.144;2023-03-08T00:22:48;1.98;;;1.60;;
47431;SDS011;33183;52.290;6.144;2023-03-08T00:25:13;2.25;;;2.05;;
47431;SDS011;33183;52.290;6.144;2023-03-08T00:27:40;1.88;;;1.77;;
47431;SDS011;33183;52.290;6.144;2023-03-08T00:30:06;2.03;;;1.80;;
47431;SDS011;33183;52.290;6.144;2023-03-08T00:32:32;2.65;;;1.70;;
47431;SDS011;33183;52.290;6.144;2023-03-08T00:34:57;2.30;;;2.00;;
47431;SDS011;33183;52.290;6.144;2023-03-08T00:37:22;2.00;;;1.90;;
47431;SDS011;33183;52.290;6.144;2023-03-08T00:39:51;1.80;;;1.70;;
47431;SDS011;33183;52.290;6.144;2023-03-08T00:42:17;2.05;;;1.75;;
47431;SDS011;33183;52.290;6.144;2023-03-08T00:44:46;2.42;;;1.83;;
47431;SDS011;33183;52.290;6.144;2023-03-08T00:47:11;2.00;;;1.90;;
47431;SDS011;33183;52.290;6.144;2023-03-08T00:49:37;1.83;;;1.50;;
47431;SDS011;33183;52.290;6.144;2023-03-08T00:52:03;2.38;;;1.80;;
47431;SDS011;33183;52.290;6.144;2023-03-08T00:54:28;1.92;;;1.73;;
47431;SDS011;33183;52.290;6.144;2023-03-08T00:56:54;1.95;;;1.80;;
47431;SDS011;33183;52.290;6.144;2023-03-08T00:59:19;1.83;;;1.48;;
47431;SDS011;33183;52.290;6.144;2023-03-08T01:01:44;2.05;;;1.80;;
47431;SDS011;33183;52.290;6.144;2023-03-08T01:04:10;2.35;;;1.42;;
47431;SDS011;33183;52.290;6.144;2023-03-08T01:06:37;2.10;;;1.90;;
47431;SDS011;33183;52.290;6.144;2023-03-08T01:09:02;2.42;;;2.13;;
47431;SDS011;33183;52.290;6.144;2023-03-08T01:11:28;1.73;;;1.60;;
47431;SDS011;33183;52.290;6.144;2023-03-08T01:13:53;2.53;;;1.75;;
47431;SDS011;33183;52.290;6.144;2023-03-08T01:16:21;2.08;;;1.90;;
47431;SDS011;33183;52.290;6.144;2023-03-08T01:21:13;1.70;;;1.60;;
47431;SDS011;33183;52.290;6.144;2023-03-08T01:23:39;1.80;;;1.70;;
47431;SDS011;33183;52.290;6.144;2023-03-08T01:26:09;2.08;;;1.88;;
47431;SDS011;33183;52.290;6.144;2023-03-08T01:28:36;1.88;;;1.70;;
47431;SDS011;33183;52.290;6.144;2023-03-08T01:31:06;1.75;;;1.65;;
47431;SDS011;33183;52.290;6.144;2023-03-08T01:33:33;2.83;;;1.92;;
47431;SDS011;33183;52.290;6.144;2023-03-08T01:36:01;2.53;;;1.63;;
47431;SDS011;33183;52.290;6.144;2023-03-08T01:38:28;2.58;;;1.70;;
47431;SDS011;33183;52.290;6.144;2023-03-08T01:40:54;1.88;;;1.77;;
47431;SDS011;33183;52.290;6.144;2023-03-08T01:43:22;2.00;;;1.80;;
47431;SDS011;33183;52.290;6.144;2023-03-08T01:51:11;1.92;;;1.75;;
47431;SDS011;33183;52.290;6.144;2023-03-08T01:53:38;1.80;;;1.70;;
47431;SDS011;33183;52.290;6.144;2023-03-08T01:56:05;1.65;;;1.50;;
47431;SDS011;33183;52.290;6.144;2023-03-08T01:58:34;1.90;;;1.80;;
47431;SDS011;33183;52.290;6.144;2023-03-08T02:01:00;1.77;;;1.67;;
47431;SDS011;33183;52.290;6.144;2023-03-08T02:03:25;2.15;;;1.80;;
47431;SDS011;33183;52.290;6.144;2023-03-08T02:05:50;2.17;;;1.75;;
47431;SDS011;33183;52.290;6.144;2023-03-08T02:08:15;2.15;;;1.50;;
47431;SDS011;33183;52.290;6.144;2023-03-08T02:10:41;1.83;;;1.63;;
47431;SDS011;33183;52.290;6.144;2023-03-08T02:13:07;2.00;;;1.90;;
47431;SDS011;33183;52.290;6.144;2023-03-08T02:15:33;2.10;;;1.90;;
47431;SDS011;33183;52.290;6.144;2023-03-08T02:17:58;2.15;;;1.80;;
47431;SDS011;33183;52.290;6.144;2023-03-08T02:20:28;1.70;;;1.60;;
47431;SDS011;33183;52.290;6.144;2023-03-08T02:23:05;2.03;;;1.77;;
47431;SDS011;33183;52.290;6.144;2023-03-08T02:28:16;1.65;;;1.55;;
47431;SDS011;33183;52.290;6.144;2023-03-08T02:30:42;1.75;;;1.50;;
47431;SDS011;33183;52.290;6.144;2023-03-08T02:33:07;2.45;;;1.80;;
47431;SDS011;33183;52.290;6.144;2023-03-08T02:35:34;2.38;;;1.67;;
47431;SDS011;33183;52.290;6.144;2023-03-08T02:37:59;1.85;;;1.50;;
47431;SDS011;33183;52.290;6.144;2023-03-08T02:40:25;1.95;;;1.60;;
47431;SDS011;33183;52.290;6.144;2023-03-08T02:42:50;1.52;;;1.42;;
47431;SDS011;33183;52.290;6.144;2023-03-08T02:45:15;1.75;;;1.52;;
47431;SDS011;33183;52.290;6.144;2023-03-08T02:47:41;1.70;;;1.60;;
47431;SDS011;33183;52.290;6.144;2023-03-08T02:50:06;1.40;;;1.30;;
47431;SDS011;33183;52.290;6.144;2023-03-08T02:52:32;1.70;;;1.60;;
47431;SDS011;33183;52.290;6.144;2023-03-08T02:54:57;1.60;;;1.45;;
47431;SDS011;33183;52.290;6.144;2023-03-08T02:57:22;1.60;;;1.50;;
47431;SDS011;33183;52.290;6.144;2023-03-08T02:59:48;2.00;;;1.42;;
47431;SDS011;33183;52.290;6.144;2023-03-08T03:02:13;2.63;;;1.63;;
47431;SDS011;33183;52.290;6.144;2023-03-08T03:04:38;1.58;;;1.48;;
47431;SDS011;33183;52.290;6.144;2023-03-08T03:07:04;2.20;;;2.00;;
47431;SDS011;33183;52.290;6.144;2023-03-08T03:09:29;2.17;;;1.65;;
47431;SDS011;33183;52.290;6.144;2023-03-08T03:11:54;1.48;;;1.38;;
47431;SDS011;33183;52.290;6.144;2023-03-08T03:14:20;1.50;;;1.40;;
47431;SDS011;33183;52.290;6.144;2023-03-08T03:16:45;1.70;;;1.60;;
47431;SDS011;33183;52.290;6.144;2023-03-08T03:19:11;1.48;;;1.30;;
47431;SDS011;33183;52.290;6.144;2023-03-08T03:21:39;1.92;;;1.40;;
47431;SDS011;33183;52.290;6.144;2023-03-08T03:24:04;1.60;;;1.50;;
47431;SDS011;33183;52.290;6.144;2023-03-08T03:26:30;1.95;;;1.40;;
47431;SDS011;33183;52.290;6.144;2023-03-08T03:28:56;1.65;;;1.50;;
47431;SDS011;33183;52.290;6.144;2023-03-08T03:31:22;1.52;;;1.42;;
47431;SDS011;33183;52.290;6.144;2023-03-08T03:33:48;1.67;;;1.58;;
47431;SDS011;33183;52.290;6.144;2023-03-08T03:36:15;1.52;;;1.42;;
47431;SDS011;33183;52.290;6.144;2023-03-08T03:38:42;1.83;;;1.50;;
47431;SDS011;33183;52.290;6.144;2023-03-08T03:41:09;1.70;;;1.60;;
47431;SDS011;33183;52.290;6.144;2023-03-08T03:43:36;2.08;;;1.75;;
47431;SDS011;33183;52.290;6.144;2023-03-08T03:46:02;1.77;;;1.67;;
47431;SDS011;33183;52.290;6.144;2023-03-08T03:48:30;1.50;;;1.40;;
47431;SDS011;33183;52.290;6.144;2023-03-08T03:50:56;1.63;;;1.52;;
47431;SDS011;33183;52.290;6.144;2023-03-08T03:53:23;1.80;;;1.58;;
47431;SDS011;33183;52.290;6.144;2023-03-08T03:55:48;2.35;;;1.58;;
47431;SDS011;33183;52.290;6.144;2023-03-08T03:58:14;1.70;;;1.60;;
47431;SDS011;33183;52.290;6.144;2023-03-08T04:00:39;1.77;;;1.67;;
47431;SDS011;33183;52.290;6.144;2023-03-08T04:03:07;1.67;;;1.50;;
47431;SDS011;33183;52.290;6.144;2023-03-08T04:05:32;1.70;;;1.55;;
47431;SDS011;33183;52.290;6.144;2023-03-08T04:07:58;2.85;;;1.77;;
47431;SDS011;33183;52.290;6.144;2023-03-08T04:10:23;3.15;;;1.98;;
47431;SDS011;33183;52.290;6.144;2023-03-08T04:12:49;1.70;;;1.60;;
47431;SDS011;33183;52.290;6.144;2023-03-08T04:15:15;1.70;;;1.50;;
47431;SDS011;33183;52.290;6.144;2023-03-08T04:17:40;1.92;;;1.70;;
47431;SDS011;33183;52.290;6.144;2023-03-08T04:20:06;2.28;;;1.90;;
47431;SDS011;33183;52.290;6.144;2023-03-08T04:22:32;2.35;;;1.85;;
47431;SDS011;33183;52.290;6.144;2023-03-08T04:24:57;1.88;;;1.77;;
47431;SDS011;33183;52.290;6.144;2023-03-08T04:27:23;2.67;;;2.10;;
47431;SDS011;33183;52.290;6.144;2023-03-08T04:29:48;2.53;;;2.00;;
47431;SDS011;33183;52.290;6.144;2023-03-08T04:32:13;2.10;;;1.90;;
47431;SDS011;33183;52.290;6.144;2023-03-08T04:34:39;2.47;;;2.00;;
47431;SDS011;33183;52.290;6.144;2023-03-08T04:37:04;2.45;;;2.15;;
47431;SDS011;33183;52.290;6.144;2023-03-08T04:39:29;2.25;;;2.05;;
47431;SDS011;33183;52.290;6.144;2023-03-08T04:41:55;2.63;;;2.17;;
47431;SDS011;33183;52.290;6.144;2023-03-08T04:44:20;2.70;;;2.45;;
47431;SDS011;33183;52.290;6.144;2023-03-08T04:46:45;2.20;;;2.00;;
47431;SDS011;33183;52.290;6.144;2023-03-08T04:49:10;2.20;;;2.00;;
47431;SDS011;33183;52.290;6.144;2023-03-08T04:51:36;2.30;;;2.10;;
47431;SDS011;33183;52.290;6.144;2023-03-08T04:54:01;3.33;;;2.17;;
47431;SDS011;33183;52.290;6.144;2023-03-08T04:56:28;2.97;;;2.67;;
47431;SDS011;33183;52.290;6.144;2023-03-08T04:58:54;2.90;;;2.60;;
47431;SDS011;33183;52.290;6.144;2023-03-08T05:01:20;2.60;;;2.40;;
47431;SDS011;33183;52.290;6.144;2023-03-08T05:03:47;3.22;;;2.85;;
47431;SDS011;33183;52.290;6.144;2023-03-08T05:06:13;3.05;;;2.30;;
47431;SDS011;33183;52.290;6.144;2023-03-08T05:08:39;2.92;;;2.40;;
47431;SDS011;33183;52.290;6.144;2023-03-08T05:11:04;2.42;;;2.22;;
47431;SDS011;33183;52.290;6.144;2023-03-08T05:13:31;3.08;;;2.80;;
47431;SDS011;33183;52.290;6.144;2023-03-08T05:15:58;3.13;;;2.83;;
47431;SDS011;33183;52.290;6.144;2023-03-08T05:18:23;2.53;;;2.33;;
47431;SDS011;33183;52.290;6.144;2023-03-08T05:20:59;2.53;;;2.33;;
47431;SDS011;33183;52.290;6.144;2023-03-08T05:23:27;2.63;;;2.42;;
47431;SDS011;33183;52.290;6.144;2023-03-08T05:25:53;2.92;;;2.70;;
47431;SDS011;33183;52.290;6.144;2023-03-08T05:28:19;2.60;;;2.40;;
47431;SDS011;33183;52.290;6.144;2023-03-08T05:30:45;2.60;;;2.38;;
47431;SDS011;33183;52.290;6.144;2023-03-08T05:33:11;2.60;;;2.40;;
47431;SDS011;33183;52.290;6.144;2023-03-08T05:35:36;3.80;;;3.20;;
47431;SDS011;33183;52.290;6.144;2023-03-08T05:38:01;3.45;;;2.80;;
47431;SDS011;33183;52.290;6.144;2023-03-08T05:40:27;3.55;;;2.88;;
47431;SDS011;33183;52.290;6.144;2023-03-08T05:42:53;2.95;;;2.65;;
47431;SDS011;33183;52.290;6.144;2023-03-08T05:45:18;3.53;;;2.97;;
47431;SDS011;33183;52.290;6.144;2023-03-08T05:47:44;2.40;;;2.20;;
47431;SDS011;33183;52.290;6.144;2023-03-08T05:50:10;2.72;;;2.42;;
47431;SDS011;33183;52.290;6.144;2023-03-08T05:52:35;3.20;;;2.90;;
47431;SDS011;33183;52.290;6.144;2023-03-08T05:55:01;3.15;;;2.85;;
47431;SDS011;33183;52.290;6.144;2023-03-08T05:57:26;3.08;;;2.72;;
47431;SDS011;33183;52.290;6.144;2023-03-08T05:59:52;3.30;;;2.95;;
47431;SDS011;33183;52.290;6.144;2023-03-08T06:02:17;3.50;;;3.03;;
47431;SDS011;33183;52.290;6.144;2023-03-08T06:04:42;3.63;;;3.08;;
47431;SDS011;33183;52.290;6.144;2023-03-08T06:07:08;4.03;;;3.28;;
47431;SDS011;33183;52.290;6.144;2023-03-08T06:09:33;3.78;;;3.00;;
47431;SDS011;33183;52.290;6.144;2023-03-08T06:11:59;3.45;;;2.83;;
47431;SDS011;33183;52.290;6.144;2023-03-08T06:14:24;2.70;;;2.50;;
47431;SDS011;33183;52.290;6.144;2023-03-08T06:16:49;3.10;;;2.80;;
47431;SDS011;33183;52.290;6.144;2023-03-08T06:19:14;3.60;;;3.05;;
47431;SDS011;33183;52.290;6.144;2023-03-08T06:21:40;3.83;;;3.17;;
47431;SDS011;33183;52.290;6.144;2023-03-08T06:24:05;3.67;;;2.92;;
47431;SDS011;33183;52.290;6.144;2023-03-08T06:26:31;4.43;;;3.03;;
47431;SDS011;33183;52.290;6.144;2023-03-08T06:28:56;3.47;;;2.88;;
47431;SDS011;33183;52.290;6.144;2023-03-08T06:31:21;3.08;;;2.78;;
47431;SDS011;33183;52.290;6.144;2023-03-08T06:33:47;3.40;;;2.92;;
47431;SDS011;33183;52.290;6.144;2023-03-08T06:36:13;2.78;;;2.42;;
47431;SDS011;33183;52.290;6.144;2023-03-08T06:38:43;3.22;;;2.92;;
47431;SDS011;33183;52.290;6.144;2023-03-08T06:41:09;3.60;;;3.30;;
47431;SDS011;33183;52.290;6.144;2023-03-08T06:43:35;3.28;;;2.88;;
47431;SDS011;33183;52.290;6.144;2023-03-08T06:46:04;3.72;;;2.97;;
47431;SDS011;33183;52.290;6.144;2023-03-08T06:48:33;3.90;;;2.85;;
47431;SDS011;33183;52.290;6.144;2023-03-08T06:50:59;2.97;;;2.60;;
47431;SDS011;33183;52.290;6.144;2023-03-08T06:53:24;3.55;;;2.60;;
47431;SDS011;33183;52.290;6.144;2023-03-08T06:55:50;3.40;;;2.78;;
47431;SDS011;33183;52.290;6.144;2023-03-08T06:58:16;3.58;;;3.28;;
47431;SDS011;33183;52.290;6.144;2023-03-08T07:00:41;3.38;;;3.08;;
47431;SDS011;33183;52.290;6.144;2023-03-08T07:03:06;3.78;;;3.15;;
47431;SDS011;33183;52.290;6.144;2023-03-08T07:05:32;3.15;;;2.88;;
47431;SDS011;33183;52.290;6.144;2023-03-08T07:07:57;3.70;;;3.08;;
47431;SDS011;33183;52.290;6.144;2023-03-08T07:10:22;3.10;;;2.80;;
47431;SDS011;33183;52.290;6.144;2023-03-08T07:12:48;4.22;;;2.92;;
47431;SDS011;33183;52.290;6.144;2023-03-08T07:15:16;4.03;;;3.30;;
47431;SDS011;33183;52.290;6.144;2023-03-08T07:17:43;4.43;;;3.47;;
47431;SDS011;33183;52.290;6.144;2023-03-08T07:20:09;3.40;;;2.90;;
47431;SDS011;33183;52.290;6.144;2023-03-08T07:22:35;3.53;;;3.20;;
47431;SDS011;33183;52.290;6.144;2023-03-08T07:25:00;4.15;;;2.97;;
47431;SDS011;33183;52.290;6.144;2023-03-08T07:27:26;3.92;;;3.08;;
47431;SDS011;33183;52.290;6.144;2023-03-08T07:29:51;4.18;;;3.30;;
47431;SDS011;33183;52.290;6.144;2023-03-08T07:32:16;3.47;;;3.17;;
47431;SDS011;33183;52.290;6.144;2023-03-08T07:34:43;3.33;;;2.90;;
47431;SDS011;33183;52.290;6.144;2023-03-08T07:37:12;3.75;;;3.25;;
47431;SDS011;33183;52.290;6.144;2023-03-08T07:39:37;3.80;;;3.30;;
47431;SDS011;33183;52.290;6.144;2023-03-08T07:42:03;3.05;;;2.75;;
47431;SDS011;33183;52.290;6.144;2023-03-08T07:44:28;3.47;;;3.10;;
47431;SDS011;33183;52.290;6.144;2023-03-08T07:46:53;3.58;;;3.28;;
47431;SDS011;33183;52.290;6.144;2023-03-08T07:49:19;3.70;;;3.10;;
47431;SDS011;33183;52.290;6.144;2023-03-08T07:51:44;3.20;;;2.90;;
47431;SDS011;33183;52.290;6.144;2023-03-08T07:54:10;3.35;;;2.75;;
47431;SDS011;33183;52.290;6.144;2023-03-08T07:56:36;3.58;;;3.28;;
47431;SDS011;33183;52.290;6.144;2023-03-08T07:59:02;3.35;;;3.05;;
47431;SDS011;33183;52.290;6.144;2023-03-08T08:01:27;3.70;;;3.30;;
47431;SDS011;33183;52.290;6.144;2023-03-08T08:03:52;3.53;;;3.22;;
47431;SDS011;33183;52.290;6.144;2023-03-08T08:06:18;3.10;;;2.80;;
47431;SDS011;33183;52.290;6.144;2023-03-08T08:08:43;2.90;;;2.60;;
47431;SDS011;33183;52.290;6.144;2023-03-08T08:11:09;3.17;;;2.85;;
47431;SDS011;33183;52.290;6.144;2023-03-08T08:13:38;3.47;;;2.92;;
47431;SDS011;33183;52.290;6.144;2023-03-08T08:16:04;3.25;;;2.95;;
47431;SDS011;33183;52.290;6.144;2023-03-08T08:18:31;3.20;;;2.90;;
47431;SDS011;33183;52.290;6.144;2023-03-08T08:21:03;3.67;;;3.20;;
47431;SDS011;33183;52.290;6.144;2023-03-08T08:23:33;3.50;;;3.20;;
47431;SDS011;33183;52.290;6.144;2023-03-08T08:26:02;3.47;;;3.03;;
47431;SDS011;33183;52.290;6.144;2023-03-08T08:28:28;3.72;;;3.33;;
47431;SDS011;33183;52.290;6.144;2023-03-08T08:30:58;3.67;;;2.70;;
47431;SDS011;33183;52.290;6.144;2023-03-08T08:33:24;3.63;;;3.08;;
47431;SDS011;33183;52.290;6.144;2023-03-08T08:35:50;3.28;;;2.97;;
47431;SDS011;33183;52.290;6.144;2023-03-08T08:38:15;3.75;;;3.10;;
47431;SDS011;33183;52.290;6.144;2023-03-08T08:40:40;3.65;;;3.28;;
47431;SDS011;33183;52.290;6.144;2023-03-08T08:43:06;4.80;;;3.72;;
47431;SDS011;33183;52.290;6.144;2023-03-08T08:45:31;3.40;;;2.97;;
47431;SDS011;33183;52.290;6.144;2023-03-08T08:47:56;3.25;;;2.83;;
47431;SDS011;33183;52.290;6.144;2023-03-08T08:50:21;4.00;;;3.00;;
47431;SDS011;33183;52.290;6.144;2023-03-08T08:52:47;3.80;;;3.40;;
47431;SDS011;33183;52.290;6.144;2023-03-08T08:55:12;3.30;;;3.00;;
47431;SDS011;33183;52.290;6.144;2023-03-08T08:57:37;3.15;;;2.75;;
47431;SDS011;33183;52.290;6.144;2023-03-08T09:00:03;3.67;;;3.38;;
47431;SDS011;33183;52.290;6.144;2023-03-08T09:02:33;3.88;;;3.38;;
47431;SDS011;33183;52.290;6.144;2023-03-08T09:04:58;3.13;;;2.83;;
47431;SDS011;33183;52.290;6.144;2023-03-08T09:07:24;3.47;;;3.10;;
47431;SDS011;33183;52.290;6.144;2023-03-08T09:09:49;3.60;;;3.30;;
47431;SDS011;33183;52.290;6.144;2023-03-08T09:12:14;3.50;;;3.20;;
47431;SDS011;33183;52.290;6.144;2023-03-08T09:14:40;3.10;;;2.70;;
47431;SDS011;33183;52.290;6.144;2023-03-08T09:17:05;3.40;;;3.00;;
47431;SDS011;33183;52.290;6.144;2023-03-08T09:19:30;3.47;;;3.17;;
47431;SDS011;33183;52.290;6.144;2023-03-08T09:21:56;3.60;;;3.30;;
47431;SDS011;33183;52.290;6.144;2023-03-08T09:24:21;3.17;;;2.72;;
47431;SDS011;33183;52.290;6.144;2023-03-08T09:26:46;3.45;;;3.15;;
47431;SDS011;33183;52.290;6.144;2023-03-08T09:29:12;3.83;;;3.22;;
47431;SDS011;33183;52.290;6.144;2023-03-08T09:31:37;3.35;;;2.85;;
47431;SDS011;33183;52.290;6.144;2023-03-08T09:34:03;4.20;;;3.75;;
47431;SDS011;33183;52.290;6.144;2023-03-08T09:36:32;3.50;;;3.20;;
47431;SDS011;33183;52.290;6.144;2023-03-08T09:38:57;3.63;;;3.33;;
47431;SDS011;33183;52.290;6.144;2023-03-08T09:46:52;3.60;;;3.20;;
47431;SDS011;33183;52.290;6.144;2023-03-08T09:49:25;3.92;;;3.55;;
47431;SDS011;33183;52.290;6.144;2023-03-08T09:52:00;3.40;;;3.00;;
47431;SDS011;33183;52.290;6.144;2023-03-08T09:54:36;3.88;;;3.40;;
47431;SDS011;33183;52.290;6.144;2023-03-08T09:57:04;3.60;;;3.30;;
47431;SDS011;33183;52.290;6.144;2023-03-08T09:59:46;4.05;;;3.65;;
47431;SDS011;33183;52.290;6.144;2023-03-08T10:04:53;3.38;;;2.90;;
47431;SDS011;33183;52.290;6.144;2023-03-08T10:07:34;3.47;;;3.17;;
47431;SDS011;33183;52.290;6.144;2023-03-08T10:15:25;3.25;;;2.90;;
47431;SDS011;33183;52.290;6.144;2023-03-08T10:17:56;3.22;;;2.90;;
47431;SDS011;33183;52.290;6.144;2023-03-08T10:20:26;3.08;;;2.78;;
47431;SDS011;33183;52.290;6.144;2023-03-08T10:23:13;3.72;;;3.08;;
47431;SDS011;33183;52.290;6.144;2023-03-08T10:25:42;3.05;;;2.75;;
47431;SDS011;33183;52.290;6.144;2023-03-08T10:28:10;2.65;;;2.45;;
47431;SDS011;33183;52.290;6.144;2023-03-08T10:30:44;3.22;;;2.70;;
47431;SDS011;33183;52.290;6.144;2023-03-08T10:33:18;3.30;;;3.00;;
47431;SDS011;33183;52.290;6.144;2023-03-08T10:38:26;3.40;;;3.03;;
47431;SDS011;33183;52.290;6.144;2023-03-08T10:43:39;2.88;;;2.28;;
47431;SDS011;33183;52.290;6.144;2023-03-08T10:46:14;2.80;;;2.47;;
47431;SDS011;33183;52.290;6.144;2023-03-08T10:48:41;2.75;;;2.47;;
47431;SDS011;33183;52.290;6.144;2023-03-08T10:51:17;2.60;;;2.17;;
47431;SDS011;33183;52.290;6.144;2023-03-08T10:54:08;3.00;;;2.55;;
47431;SDS011;33183;52.290;6.144;2023-03-08T10:56:36;3.30;;;2.92;;
47431;SDS011;33183;52.290;6.144;2023-03-08T10:59:05;3.23;;;2.93;;
47431;SDS011;33183;52.290;6.144;2023-03-08T11:01:46;3.75;;;2.97;;
47431;SDS011;33183;52.290;6.144;2023-03-08T11:04:17;4.43;;;3.38;;
47431;SDS011;33183;52.290;6.144;2023-03-08T11:06:44;3.40;;;2.90;;
47431;SDS011;33183;52.290;6.144;2023-03-08T11:09:20;3.63;;;3.33;;
47431;SDS011;33183;52.290;6.144;2023-03-08T11:11:54;3.42;;;3.03;;
47431;SDS011;33183;52.290;6.144;2023-03-08T11:14:21;4.10;;;3.42;;
47431;SDS011;33183;52.290;6.144;2023-03-08T11:19:31;4.30;;;3.47;;
47431;SDS011;33183;52.290;6.144;2023-03-08T11:33:05;3.45;;;3.03;;
47431;SDS011;33183;52.290;6.144;2023-03-08T11:36:11;4.13;;;2.63;;
47431;SDS011;33183;52.290;6.144;2023-03-08T11:38:53;3.50;;;2.85;;
47431;SDS011;33183;52.290;6.144;2023-03-08T11:41:24;3.47;;;3.17;;
47431;SDS011;33183;52.290;6.144;2023-03-08T11:49:49;3.15;;;2.85;;
47431;SDS011;33183;52.290;6.144;2023-03-08T12:01:01;3.10;;;2.80;;
47431;SDS011;33183;52.290;6.144;2023-03-08T12:03:34;3.58;;;3.10;;
47431;SDS011;33183;52.290;6.144;2023-03-08T12:06:24;3.47;;;3.13;;
47431;SDS011;33183;52.290;6.144;2023-03-08T12:09:04;3.15;;;2.85;;
47431;SDS011;33183;52.290;6.144;2023-03-08T12:11:43;4.03;;;3.63;;
47431;SDS011;33183;52.290;6.144;2023-03-08T12:14:18;2.60;;;2.40;;
47431;SDS011;33183;52.290;6.144;2023-03-08T12:16:50;3.50;;;3.20;;
47431;SDS011;33183;52.290;6.144;2023-03-08T12:27:07;4.30;;;3.03;;
47431;SDS011;33183;52.290;6.144;2023-03-08T12:32:38;3.88;;;3.20;;
47431;SDS011;33183;52.290;6.144;2023-03-08T12:35:06;3.90;;;3.10;;
47431;SDS011;33183;52.290;6.144;2023-03-08T12:48:24;3.38;;;2.78;;
47431;SDS011;33183;52.290;6.144;2023-03-08T12:50:56;3.63;;;3.25;;
47431;SDS011;33183;52.290;6.144;2023-03-08T12:53:36;2.95;;;2.75;;
47431;SDS011;33183;52.290;6.144;2023-03-08T12:58:33;3.22;;;2.90;;
47431;SDS011;33183;52.290;6.144;2023-03-08T13:01:03;4.10;;;3.70;;
47431;SDS011;33183;52.290;6.144;2023-03-08T13:03:39;4.68;;;3.25;;
47431;SDS011;33183;52.290;6.144;2023-03-08T13:11:53;3.30;;;3.00;;
47431;SDS011;33183;52.290;6.144;2023-03-08T13:14:36;3.10;;;2.80;;
47431;SDS011;33183;52.290;6.144;2023-03-08T13:17:23;2.85;;;2.58;;
47431;SDS011;33183;52.290;6.144;2023-03-08T13:19:53;3.80;;;3.08;;
47431;SDS011;33183;52.290;6.144;2023-03-08T13:22:22;3.00;;;2.70;;
47431;SDS011;33183;52.290;6.144;2023-03-08T13:24:55;3.22;;;2.92;;
47431;SDS011;33183;52.290;6.144;2023-03-08T13:29:50;3.70;;;3.00;;
47431;SDS011;33183;52.290;6.144;2023-03-08T13:32:17;3.75;;;3.17;;
47431;SDS011;33183;52.290;6.144;2023-03-08T13:34:44;3.92;;;3.53;;
47431;SDS011;33183;52.290;6.144;2023-03-08T13:37:23;3.60;;;3.20;;
47431;SDS011;33183;52.290;6.144;2023-03-08T13:39:50;3.83;;;2.90;;
47431;SDS011;33183;52.290;6.144;2023-03-08T13:42:18;3.53;;;3.22;;
47431;SDS011;33183;52.290;6.144;2023-03-08T13:44:48;3.55;;;3.25;;
47431;SDS011;33183;52.290;6.144;2023-03-08T13:49:50;3.47;;;3.08;;
47431;SDS011;33183;52.290;6.144;2023-03-08T13:52:24;3.53;;;3.22;;
47431;SDS011;33183;52.290;6.144;2023-03-08T13:54:55;3.58;;;3.28;;
47431;SDS011;33183;52.290;6.144;2023-03-08T13:57:22;3.85;;;3.47;;
47431;SDS011;33183;52.290;6.144;2023-03-08T13:59:54;3.65;;;3.17;;
47431;SDS011;33183;52.290;6.144;2023-03-08T14:02:25;4.13;;;3.72;;
47431;SDS011;33183;52.290;6.144;2023-03-08T14:04:51;3.55;;;3.15;;
47431;SDS011;33183;52.290;6.144;2023-03-08T14:07:24;3.53;;;3.22;;
47431;SDS011;33183;52.290;6.144;2023-03-08T14:09:54;5.60;;;3.65;;
47431;SDS011;33183;52.290;6.144;2023-03-08T14:12:21;3.88;;;3.47;;
47431;SDS011;33183;52.290;6.144;2023-03-08T14:14:54;3.67;;;3.30;;
47431;SDS011;33183;52.290;6.144;2023-03-08T14:17:22;3.88;;;3.13;;
47431;SDS011;33183;52.290;6.144;2023-03-08T14:19:55;3.50;;;3.20;;
47431;SDS011;33183;52.290;6.144;2023-03-08T14:22:22;3.58;;;3.28;;
47431;SDS011;33183;52.290;6.144;2023-03-08T14:24:56;4.90;;;3.58;;
47431;SDS011;33183;52.290;6.144;2023-03-08T14:27:32;3.88;;;3.47;;
47431;SDS011;33183;52.290;6.144;2023-03-08T14:30:07;4.13;;;3.25;;
47431;SDS011;33183;52.290;6.144;2023-03-08T14:32:36;3.60;;;3.30;;
47431;SDS011;33183;52.290;6.144;2023-03-08T14:35:04;3.60;;;3.28;;
47431;SDS011;33183;52.290;6.144;2023-03-08T14:37:31;3.55;;;3.25;;
47431;SDS011;33183;52.290;6.144;2023-03-08T14:42:41;3.72;;;3.35;;
47431;SDS011;33183;52.290;6.144;2023-03-08T14:45:25;3.30;;;3.00;;
47431;SDS011;33183;52.290;6.144;2023-03-08T14:47:55;3.17;;;2.88;;
47431;SDS011;33183;52.290;6.144;2023-03-08T14:50:26;3.60;;;3.03;;
47431;SDS011;33183;52.290;6.144;2023-03-08T14:52:55;3.72;;;3.40;;
47431;SDS011;33183;52.290;6.144;2023-03-08T14:55:22;3.30;;;3.00;;
47431;SDS011;33183;52.290;6.144;2023-03-08T14:57:53;3.50;;;3.20;;
47431;SDS011;33183;52.290;6.144;2023-03-08T15:00:22;4.05;;;3.50;;
47431;SDS011;33183;52.290;6.144;2023-03-08T15:02:47;4.53;;;3.60;;
47431;SDS011;33183;52.290;6.144;2023-03-08T15:05:17;3.53;;;3.22;;
47431;SDS011;33183;52.290;6.144;2023-03-08T15:07:44;3.40;;;3.10;;
47431;SDS011;33183;52.290;6.144;2023-03-08T15:10:15;3.15;;;2.75;;
47431;SDS011;33183;52.290;6.144;2023-03-08T15:12:59;3.22;;;2.92;;
47431;SDS011;33183;52.290;6.144;2023-03-08T15:15:24;3.40;;;3.10;;
47431;SDS011;33183;52.290;6.144;2023-03-08T15:17:50;3.70;;;3.35;;
47431;SDS011;33183;52.290;6.144;2023-03-08T15:20:15;4.03;;;3.53;;
47431;SDS011;33183;52.290;6.144;2023-03-08T15:22:46;4.00;;;3.42;;
47431;SDS011;33183;52.290;6.144;2023-03-08T15:27:58;4.88;;;3.58;;
47431;SDS011;33183;52.290;6.144;2023-03-08T15:30:24;3.58;;;3.28;;
47431;SDS011;33183;52.290;6.144;2023-03-08T15:32:51;3.83;;;3.42;;
47431;SDS011;33183;52.290;6.144;2023-03-08T15:35:16;3.60;;;3.30;;
47431;SDS011;33183;52.290;6.144;2023-03-08T15:37:42;4.20;;;3.83;;
47431;SDS011;33183;52.290;6.144;2023-03-08T15:40:15;3.63;;;3.33;;
47431;SDS011;33183;52.290;6.144;2023-03-08T15:42:42;3.90;;;3.50;;
47431;SDS011;33183;52.290;6.144;2023-03-08T15:45:08;3.53;;;3.22;;
47431;SDS011;33183;52.290;6.144;2023-03-08T15:47:34;3.65;;;3.28;;
47431;SDS011;33183;52.290;6.144;2023-03-08T15:50:00;4.72;;;3.70;;
47431;SDS011;33183;52.290;6.144;2023-03-08T15:52:26;3.83;;;3.50;;
47431;SDS011;33183;52.290;6.144;2023-03-08T15:54:52;3.60;;;3.30;;
47431;SDS011;33183;52.290;6.144;2023-03-08T15:57:17;3.88;;;3.58;;
47431;SDS011;33183;52.290;6.144;2023-03-08T15:59:43;4.70;;;4.03;;
47431;SDS011;33183;52.290;6.144;2023-03-08T16:02:12;4.10;;;3.70;;
47431;SDS011;33183;52.290;6.144;2023-03-08T16:04:42;3.53;;;3.22;;
47431;SDS011;33183;52.290;6.144;2023-03-08T16:07:10;3.28;;;2.97;;
47431;SDS011;33183;52.290;6.144;2023-03-08T16:09:37;3.40;;;3.10;;
47431;SDS011;33183;52.290;6.144;2023-03-08T16:12:02;4.05;;;3.65;;
47431;SDS011;33183;52.290;6.144;2023-03-08T16:14:28;4.10;;;3.80;;
47431;SDS011;33183;52.290;6.144;2023-03-08T16:16:53;4.28;;;3.88;;
47431;SDS011;33183;52.290;6.144;2023-03-08T16:19:18;4.13;;;3.72;;
47431;SDS011;33183;52.290;6.144;2023-03-08T16:21:43;4.20;;;3.80;;
47431;SDS011;33183;52.290;6.144;2023-03-08T16:24:09;4.47;;;4.07;;
47431;SDS011;33183;52.290;6.144;2023-03-08T16:26:34;3.90;;;3.58;;
47431;SDS011;33183;52.290;6.144;2023-03-08T16:29:00;3.92;;;3.53;;